Time;durP1;ratioP1;P1;durP2;ratioP2;P2;SDS_P1;SDS_P2;PMS_P1;PMS_P2;Temp;Humidity;BMP_temperature;BMP_pressure;BME280_temperature;BME280_humidity;BME280_pressure;Samples;Min_cycle;Max_cycle;Signal;HPM_P1;HPM_P2
2022/04/01 00:00:22;;;;;;;14.70;9.43;;;;;;;;;;4972299;28;20038;-70
2022/04/01 00:02:47;;;;;;;14.05;8.82;;;;;;;;;;4973099;28;20113;-70
2022/04/01 00:05:13;;;;;;;15.82;9.60;;;;;;;;;;4973552;28;20110;-70
2022/04/01 00:07:40;;;;;;;14.95;8.77;;;;;;;;;;4972446;28;20054;-70
2022/04/01 00:10:07;;;;;;;19.88;9.63;;;;;;;;;;4973268;28;20027;-70
2022/04/01 00:12:33;;;;;;;14.52;9.23;;;;;;;;;;4972332;28;20034;-70
2022/04/01 00:14:58;;;;;;;15.50;8.63;;;;;;;;;;4973227;28;20374;-70
2022/04/01 00:17:24;;;;;;;15.55;9.27;;;;;;;;;;4975722;28;20030;-71
2022/04/01 00:19:49;;;;;;;14.50;9.55;;;;;;;;;;4976992;28;20031;-70
2022/04/01 00:22:14;;;;;;;17.80;9.43;;;;;;;;;;4976988;28;20034;-69
2022/04/01 00:24:40;;;;;;;14.60;9.30;;;;;;;;;;4976254;28;20042;-70
2022/04/01 00:27:05;;;;;;;16.67;8.80;;;;;;;;;;4975496;28;20037;-70
2022/04/01 00:29:31;;;;;;;14.23;8.85;;;;;;;;;;4975986;28;20122;-71
2022/04/01 00:32:00;;;;;;;13.77;8.38;;;;;;;;;;4976250;28;20031;-70
2022/04/01 00:34:29;;;;;;;13.77;9.40;;;;;;;;;;4976042;28;20023;-70
2022/04/01 00:36:56;;;;;;;12.98;8.60;;;;;;;;;;4976650;28;20039;-70
2022/04/01 00:39:24;;;;;;;11.88;7.88;;;;;;;;;;4976164;28;20365;-70
2022/04/01 00:41:51;;;;;;;12.88;8.15;;;;;;;;;;4976485;28;20035;-70
2022/04/01 00:44:17;;;;;;;13.88;8.35;;;;;;;;;;4976760;28;20034;-70
2022/04/01 00:46:45;;;;;;;13.40;8.30;;;;;;;;;;4975824;28;20035;-70
2022/04/01 00:49:11;;;;;;;14.35;8.45;;;;;;;;;;4976293;28;20031;-70
2022/04/01 00:51:37;;;;;;;14.52;8.93;;;;;;;;;;4975969;28;20054;-70
2022/04/01 00:54:06;;;;;;;13.50;8.45;;;;;;;;;;4976028;28;20054;-69
2022/04/01 00:56:33;;;;;;;13.43;8.00;;;;;;;;;;4975394;28;20027;-71
2022/04/01 00:58:59;;;;;;;12.98;8.27;;;;;;;;;;4976200;28;20034;-70
2022/04/01 01:01:26;;;;;;;13.40;8.65;;;;;;;;;;4976182;28;20027;-70
2022/04/01 01:03:51;;;;;;;14.32;8.63;;;;;;;;;;4976055;28;20089;-70
2022/04/01 01:06:19;;;;;;;14.50;8.60;;;;;;;;;;4974937;28;20105;-71
2022/04/01 01:08:45;;;;;;;13.00;8.13;;;;;;;;;;4975579;28;20416;-70
2022/04/01 01:11:10;;;;;;;12.25;7.90;;;;;;;;;;4975754;28;20034;-71
2022/04/01 01:13:36;;;;;;;15.73;8.45;;;;;;;;;;4957956;28;20387;-70
2022/04/01 01:16:02;;;;;;;12.75;7.78;;;;;;;;;;4976299;28;20093;-69
2022/04/01 01:18:27;;;;;;;12.05;7.40;;;;;;;;;;4974885;28;20085;-70
2022/04/01 01:20:52;;;;;;;13.98;7.60;;;;;;;;;;4976134;28;20384;-70
2022/04/01 01:23:18;;;;;;;11.55;6.88;;;;;;;;;;4975885;28;20038;-71
2022/04/01 01:25:45;;;;;;;14.00;7.90;;;;;;;;;;4975505;28;20057;-71
2022/04/01 01:28:11;;;;;;;9.77;6.50;;;;;;;;;;4974456;28;20113;-72
2022/04/01 01:30:36;;;;;;;10.57;6.40;;;;;;;;;;4975093;28;20035;-72
2022/04/01 01:33:02;;;;;;;10.15;6.47;;;;;;;;;;4975849;28;20038;-72
2022/04/01 01:35:28;;;;;;;10.20;6.25;;;;;;;;;;4975490;28;20380;-71
2022/04/01 01:37:54;;;;;;;9.25;5.95;;;;;;;;;;4975359;28;20026;-72
2022/04/01 01:40:20;;;;;;;9.45;6.28;;;;;;;;;;4975470;28;20034;-72
2022/04/01 01:42:45;;;;;;;10.13;6.03;;;;;;;;;;4975137;28;20453;-72
2022/04/01 01:45:11;;;;;;;10.38;6.47;;;;;;;;;;4975479;28;20031;-72
2022/04/01 01:47:36;;;;;;;9.55;5.45;;;;;;;;;;4973411;28;20480;-72
2022/04/01 01:55:30;;;;;;;12.23;6.30;;;;;;;;;;4974140;28;20097;-72
2022/04/01 01:57:56;;;;;;;8.80;5.80;;;;;;;;;;4974756;28;20031;-72
2022/04/01 02:00:22;;;;;;;10.15;6.00;;;;;;;;;;4974725;28;20362;-72
2022/04/01 02:02:50;;;;;;;9.68;5.65;;;;;;;;;;4974098;28;20038;-72
2022/04/01 02:05:16;;;;;;;9.75;5.82;;;;;;;;;;4974810;28;20030;-72
2022/04/01 02:07:47;;;;;;;9.52;6.30;;;;;;;;;;4974268;28;20451;-72
2022/04/01 02:10:15;;;;;;;10.13;6.57;;;;;;;;;;4973787;28;20039;-72
2022/04/01 02:12:43;;;;;;;9.73;6.38;;;;;;;;;;4972960;28;20754;-72
2022/04/01 02:15:10;;;;;;;9.85;6.18;;;;;;;;;;4974729;28;20085;-72
2022/04/01 02:17:37;;;;;;;9.13;5.78;;;;;;;;;;4974041;28;20121;-72
2022/04/01 02:20:05;;;;;;;10.20;6.22;;;;;;;;;;4974562;28;20049;-72
2022/04/01 02:22:31;;;;;;;11.20;6.35;;;;;;;;;;4974227;28;20370;-72
2022/04/01 02:24:57;;;;;;;10.52;5.75;;;;;;;;;;4957371;28;20057;-72
2022/04/01 02:27:24;;;;;;;9.57;6.18;;;;;;;;;;4974631;28;20038;-72
2022/04/01 02:29:50;;;;;;;9.93;5.90;;;;;;;;;;4973708;28;20374;-72
2022/04/01 02:32:16;;;;;;;8.10;5.50;;;;;;;;;;4974788;28;20039;-72
2022/04/01 02:34:42;;;;;;;9.10;6.07;;;;;;;;;;4956393;28;20449;-71
2022/04/01 02:37:08;;;;;;;7.82;4.68;;;;;;;;;;4956882;28;20142;-71
2022/04/01 02:39:33;;;;;;;9.00;5.70;;;;;;;;;;4973632;28;20031;-73
2022/04/01 02:41:58;;;;;;;9.95;5.55;;;;;;;;;;4974307;28;20031;-72
2022/04/01 02:44:24;;;;;;;9.45;5.80;;;;;;;;;;4974077;28;20053;-72
2022/04/01 02:46:50;;;;;;;9.85;5.30;;;;;;;;;;4973296;28;20035;-72
2022/04/01 02:49:17;;;;;;;7.60;5.32;;;;;;;;;;4972582;28;20435;-72
2022/04/01 02:51:46;;;;;;;9.20;5.78;;;;;;;;;;4973281;28;20055;-72
2022/04/01 02:54:12;;;;;;;8.95;4.97;;;;;;;;;;4974143;28;20038;-72
2022/04/01 02:56:40;;;;;;;7.68;5.05;;;;;;;;;;4973502;28;20035;-72
2022/04/01 02:59:07;;;;;;;8.95;5.13;;;;;;;;;;4973934;28;20035;-72
2022/04/01 03:01:34;;;;;;;7.65;5.25;;;;;;;;;;4973762;28;20034;-72
2022/04/01 03:03:59;;;;;;;8.15;4.97;;;;;;;;;;4956763;28;20468;-72
2022/04/01 03:06:25;;;;;;;8.38;5.20;;;;;;;;;;4973948;28;20172;-72
2022/04/01 03:08:51;;;;;;;7.13;4.80;;;;;;;;;;4973179;28;20030;-73
2022/04/01 03:11:17;;;;;;;7.35;4.78;;;;;;;;;;4973631;28;20062;-73
2022/04/01 03:13:43;;;;;;;7.50;4.38;;;;;;;;;;4971996;28;20456;-74
2022/04/01 03:16:09;;;;;;;7.45;4.75;;;;;;;;;;4973953;28;20031;-76
2022/04/01 03:18:40;;;;;;;8.07;4.55;;;;;;;;;;4972875;28;20459;-73
2022/04/01 03:21:06;;;;;;;8.18;4.43;;;;;;;;;;4973779;28;20088;-76
2022/04/01 03:23:31;;;;;;;7.50;4.65;;;;;;;;;;4973508;28;20113;-77
2022/04/01 03:25:56;;;;;;;7.57;4.63;;;;;;;;;;4973007;28;20457;-77
2022/04/01 03:28:22;;;;;;;7.38;4.97;;;;;;;;;;4973441;28;20037;-75
2022/04/01 03:30:50;;;;;;;6.88;4.40;;;;;;;;;;4972858;28;20038;-74
2022/04/01 03:33:17;;;;;;;8.00;4.90;;;;;;;;;;4973470;28;20074;-74
2022/04/01 03:35:43;;;;;;;7.55;4.95;;;;;;;;;;4972897;28;20035;-74
2022/04/01 03:38:10;;;;;;;6.82;4.45;;;;;;;;;;4973444;28;20034;-73
2022/04/01 03:40:38;;;;;;;7.47;4.60;;;;;;;;;;4972897;28;20026;-73
2022/04/01 03:43:05;;;;;;;8.80;5.18;;;;;;;;;;4973191;28;20035;-72
2022/04/01 03:45:31;;;;;;;6.72;4.57;;;;;;;;;;4973344;28;20030;-72
2022/04/01 03:48:07;;;;;;;6.28;4.25;;;;;;;;;;4972589;28;20023;-72
2022/04/01 03:50:34;;;;;;;5.90;4.15;;;;;;;;;;4975183;28;20201;-70
2022/04/01 03:53:08;;;;;;;6.40;3.78;;;;;;;;;;4979309;28;20054;-70
2022/04/01 03:55:38;;;;;;;6.10;3.97;;;;;;;;;;4979974;28;20030;-70
2022/04/01 03:58:11;;;;;;;6.72;4.25;;;;;;;;;;4979329;28;20090;-69
2022/04/01 04:00:38;;;;;;;6.72;4.32;;;;;;;;;;4961740;28;20062;-69
2022/04/01 04:03:06;;;;;;;6.18;3.90;;;;;;;;;;4979685;28;20030;-70
2022/04/01 04:05:34;;;;;;;7.10;3.90;;;;;;;;;;4979731;28;20031;-70
2022/04/01 04:08:01;;;;;;;7.10;4.85;;;;;;;;;;4979232;28;20053;-70
2022/04/01 04:10:28;;;;;;;8.75;4.70;;;;;;;;;;4979598;28;20058;-70
2022/04/01 04:12:56;;;;;;;7.25;4.68;;;;;;;;;;4979180;28;20081;-69
2022/04/01 04:15:26;;;;;;;6.95;4.20;;;;;;;;;;4979665;28;20514;-70
2022/04/01 04:17:54;;;;;;;7.25;4.55;;;;;;;;;;4979110;28;20034;-70
2022/04/01 04:20:34;;;;;;;7.55;4.82;;;;;;;;;;4962197;28;20489;-71
2022/04/01 04:23:25;;;;;;;6.32;4.20;;;;;;;;;;4978979;28;20084;-70
2022/04/01 04:26:01;;;;;;;6.13;4.25;;;;;;;;;;4979080;28;20034;-71
2022/04/01 04:28:27;;;;;;;8.05;4.60;;;;;;;;;;4979537;28;20046;-70
2022/04/01 04:31:02;;;;;;;7.32;4.57;;;;;;;;;;4979010;28;20031;-70
2022/04/01 04:33:31;;;;;;;7.75;4.60;;;;;;;;;;4979650;28;20516;-70
2022/04/01 04:36:04;;;;;;;7.55;4.45;;;;;;;;;;4978907;28;20042;-71
2022/04/01 04:38:37;;;;;;;7.38;4.40;;;;;;;;;;4979536;28;20496;-70
2022/04/01 04:41:08;;;;;;;7.10;4.32;;;;;;;;;;4979559;28;20037;-71
2022/04/01 04:43:38;;;;;;;6.93;4.50;;;;;;;;;;4979535;28;20041;-70
2022/04/01 04:46:04;;;;;;;6.28;3.85;;;;;;;;;;4979620;28;20105;-70
2022/04/01 04:48:32;;;;;;;7.60;4.45;;;;;;;;;;4979349;28;20461;-70
2022/04/01 04:50:59;;;;;;;7.78;4.55;;;;;;;;;;4978449;28;20054;-70
2022/04/01 04:53:27;;;;;;;7.90;4.57;;;;;;;;;;4979745;28;20060;-70
2022/04/01 04:55:53;;;;;;;7.78;4.60;;;;;;;;;;4978799;28;20031;-70
2022/04/01 04:58:21;;;;;;;9.43;4.45;;;;;;;;;;4979248;28;20093;-70
2022/04/01 05:00:53;;;;;;;6.47;4.55;;;;;;;;;;4978726;28;20042;-70
2022/04/01 05:03:48;;;;;;;6.53;4.28;;;;;;;;;;4976736;28;20031;-71
2022/04/01 05:06:17;;;;;;;7.95;4.38;;;;;;;;;;4946098;28;20089;-71
2022/04/01 05:09:10;;;;;;;7.30;4.63;;;;;;;;;;4958253;28;20031;-70
2022/04/01 05:11:58;;;;;;;6.70;4.13;;;;;;;;;;4976171;28;20030;-71
2022/04/01 05:14:48;;;;;;;7.35;4.40;;;;;;;;;;4976320;28;20041;-71
2022/04/01 05:17:29;;;;;;;8.20;4.38;;;;;;;;;;4976165;28;20493;-71
2022/04/01 05:20:00;;;;;;;7.05;4.03;;;;;;;;;;4975384;28;20048;-71
2022/04/01 05:22:42;;;;;;;8.57;4.07;;;;;;;;;;4975975;28;20117;-72
2022/04/01 05:25:11;;;;;;;6.97;4.10;;;;;;;;;;4975927;28;20031;-72
2022/04/01 05:27:48;;;;;;;6.80;4.20;;;;;;;;;;4958708;28;20085;-72
2022/04/01 05:30:18;;;;;;;7.53;4.10;;;;;;;;;;4975332;28;20026;-72
2022/04/01 05:33:08;;;;;;;6.88;4.10;;;;;;;;;;4957801;28;20062;-72
2022/04/01 05:35:39;;;;;;;7.47;4.07;;;;;;;;;;4975713;28;20066;-72
2022/04/01 05:38:07;;;;;;;7.47;4.10;;;;;;;;;;4974914;28;20125;-72
2022/04/01 05:40:34;;;;;;;10.02;4.20;;;;;;;;;;4975549;28;20105;-72
2022/04/01 05:43:01;;;;;;;7.13;4.18;;;;;;;;;;4957379;28;20213;-71
2022/04/01 05:45:29;;;;;;;7.70;4.28;;;;;;;;;;4975848;28;20058;-72
2022/04/01 05:47:56;;;;;;;8.35;4.40;;;;;;;;;;4975002;28;20030;-72
2022/04/01 05:50:23;;;;;;;6.47;4.18;;;;;;;;;;4975033;28;20043;-73
2022/04/01 05:52:50;;;;;;;7.07;4.20;;;;;;;;;;4974693;28;20038;-73
2022/04/01 05:55:19;;;;;;;5.97;4.00;;;;;;;;;;4975047;28;20031;-73
2022/04/01 05:57:45;;;;;;;6.32;3.63;;;;;;;;;;4974311;28;20035;-71
2022/04/01 06:00:12;;;;;;;6.65;4.22;;;;;;;;;;4975084;28;20384;-73
2022/04/01 06:03:02;;;;;;;7.32;3.92;;;;;;;;;;4975108;28;20031;-73
2022/04/01 06:05:46;;;;;;;6.20;4.10;;;;;;;;;;4974892;28;20089;-72
2022/04/01 06:08:14;;;;;;;5.93;3.67;;;;;;;;;;4974644;28;20037;-72
2022/04/01 06:10:57;;;;;;;7.10;4.28;;;;;;;;;;4974767;28;20484;-73
2022/04/01 06:13:37;;;;;;;6.97;3.83;;;;;;;;;;4974700;28;20051;-73
2022/04/01 06:16:20;;;;;;;6.13;3.67;;;;;;;;;;4974448;28;20031;-72
2022/04/01 06:19:10;;;;;;;6.85;4.03;;;;;;;;;;4974355;28;20027;-72
2022/04/01 06:21:48;;;;;;;7.47;4.13;;;;;;;;;;4974777;28;20027;-73
2022/04/01 06:24:48;;;;;;;8.32;4.53;;;;;;;;;;4975104;28;20049;-72
2022/04/01 06:27:21;;;;;;;7.38;4.28;;;;;;;;;;4975578;28;20050;-72
2022/04/01 06:30:08;;;;;;;7.30;4.18;;;;;;;;;;4956873;28;20526;-71
2022/04/01 06:32:53;;;;;;;7.82;4.20;;;;;;;;;;4974792;28;20052;-72
2022/04/01 06:35:28;;;;;;;5.35;3.50;;;;;;;;;;4974876;28;20038;-72
2022/04/01 06:37:57;;;;;;;7.70;4.28;;;;;;;;;;4973973;28;20033;-72
2022/04/01 06:40:27;;;;;;;7.00;4.40;;;;;;;;;;4973801;28;20105;-72
2022/04/01 06:42:53;;;;;;;7.38;4.35;;;;;;;;;;4973317;28;20078;-71
2022/04/01 06:45:20;;;;;;;7.65;4.28;;;;;;;;;;4974015;28;20025;-71
2022/04/01 06:47:47;;;;;;;7.00;3.70;;;;;;;;;;4973050;28;20419;-71
2022/04/01 06:50:12;;;;;;;6.55;4.00;;;;;;;;;;4973747;28;20055;-71
2022/04/01 06:52:39;;;;;;;6.55;4.25;;;;;;;;;;4973079;28;20475;-70
2022/04/01 06:55:08;;;;;;;8.30;4.80;;;;;;;;;;4973351;28;20031;-70
2022/04/01 06:57:33;;;;;;;6.85;4.22;;;;;;;;;;4974191;28;20034;-70
2022/04/01 06:59:59;;;;;;;5.93;3.65;;;;;;;;;;4972969;28;20041;-70
2022/04/01 07:02:24;;;;;;;6.45;4.30;;;;;;;;;;4973823;28;20113;-69
2022/04/01 07:04:49;;;;;;;7.05;4.05;;;;;;;;;;4973491;28;20062;-71
2022/04/01 07:07:15;;;;;;;6.05;3.90;;;;;;;;;;4972785;28;20060;-70
2022/04/01 07:09:41;;;;;;;6.90;4.00;;;;;;;;;;4973923;28;20055;-70
2022/04/01 07:12:07;;;;;;;8.38;4.20;;;;;;;;;;4973267;28;20035;-68
2022/04/01 07:14:32;;;;;;;7.38;3.92;;;;;;;;;;4974228;28;20035;-69
2022/04/01 07:16:58;;;;;;;7.60;4.15;;;;;;;;;;4973359;28;20035;-69
2022/04/01 07:19:24;;;;;;;6.38;3.92;;;;;;;;;;4973832;28;20155;-66
2022/04/01 07:21:50;;;;;;;8.13;4.15;;;;;;;;;;4973037;28;20043;-68
2022/04/01 07:24:15;;;;;;;7.55;4.20;;;;;;;;;;4973371;28;20065;-67
2022/04/01 07:26:44;;;;;;;8.73;4.20;;;;;;;;;;4973036;28;20452;-67
2022/04/01 07:29:10;;;;;;;6.55;3.63;;;;;;;;;;4972803;28;20503;-66
2022/04/01 07:34:29;;;;;;;6.93;3.78;;;;;;;;;;4973573;28;20067;-67
2022/04/01 07:36:55;;;;;;;6.10;3.65;;;;;;;;;;4973171;28;20106;-67
2022/04/01 07:39:20;;;;;;;6.82;3.35;;;;;;;;;;4973427;28;20023;-67
2022/04/01 07:41:45;;;;;;;6.28;3.70;;;;;;;;;;4973422;28;20037;-66
2022/04/01 07:44:11;;;;;;;5.93;3.47;;;;;;;;;;4972626;28;20030;-66
2022/04/01 07:46:37;;;;;;;7.85;3.90;;;;;;;;;;4956290;28;20031;-65
2022/04/01 07:49:02;;;;;;;10.02;4.20;;;;;;;;;;4972570;28;20042;-66
2022/04/01 07:51:28;;;;;;;6.03;3.60;;;;;;;;;;4973051;28;20417;-65
2022/04/01 07:53:53;;;;;;;7.13;3.78;;;;;;;;;;4972590;28;20054;-65
2022/04/01 07:56:18;;;;;;;5.88;3.80;;;;;;;;;;4973257;28;20113;-65
2022/04/01 07:58:44;;;;;;;6.38;3.83;;;;;;;;;;4973440;28;20031;-64
2022/04/01 08:01:09;;;;;;;7.88;4.15;;;;;;;;;;4972797;28;20592;-64
2022/04/01 08:03:34;;;;;;;9.05;3.97;;;;;;;;;;4973353;28;20453;-65
2022/04/01 08:06:00;;;;;;;7.55;4.05;;;;;;;;;;4973022;28;20396;-65
2022/04/01 08:08:25;;;;;;;7.22;4.07;;;;;;;;;;4973603;28;20031;-66
2022/04/01 08:10:52;;;;;;;5.85;3.60;;;;;;;;;;4972924;28;20111;-70
2022/04/01 08:13:17;;;;;;;6.13;3.90;;;;;;;;;;4972236;28;20069;-64
2022/04/01 08:15:43;;;;;;;7.43;4.03;;;;;;;;;;4971980;28;20026;-64
2022/04/01 08:18:09;;;;;;;6.00;3.80;;;;;;;;;;4972646;28;20453;-63
2022/04/01 08:20:35;;;;;;;6.70;3.80;;;;;;;;;;4973423;28;20461;-63
2022/04/01 08:23:00;;;;;;;7.13;4.00;;;;;;;;;;4972583;28;20089;-63
2022/04/01 08:25:26;;;;;;;6.97;4.15;;;;;;;;;;4973523;28;20440;-63
2022/04/01 08:27:51;;;;;;;5.75;3.80;;;;;;;;;;4973329;28;20026;-63
2022/04/01 08:30:17;;;;;;;6.25;3.90;;;;;;;;;;4973135;28;20031;-64
2022/04/01 08:32:42;;;;;;;5.90;3.78;;;;;;;;;;4971827;28;20044;-63
2022/04/01 08:35:08;;;;;;;6.70;3.75;;;;;;;;;;4971139;28;20370;-62
2022/04/01 08:37:34;;;;;;;6.78;4.03;;;;;;;;;;4973720;28;20118;-63
2022/04/01 08:40:00;;;;;;;6.22;3.83;;;;;;;;;;4974446;28;20066;-63
2022/04/01 08:42:27;;;;;;;7.57;3.42;;;;;;;;;;4975385;28;20038;-64
2022/04/01 08:44:53;;;;;;;6.03;3.58;;;;;;;;;;4976076;28;20106;-64
2022/04/01 08:47:20;;;;;;;6.75;3.50;;;;;;;;;;4959220;28;20052;-63
2022/04/01 08:49:46;;;;;;;5.95;3.50;;;;;;;;;;4958895;28;20042;-63
2022/04/01 08:52:11;;;;;;;6.55;3.70;;;;;;;;;;4975703;28;20023;-63
2022/04/01 08:54:37;;;;;;;6.40;3.35;;;;;;;;;;4959174;28;20039;-64
2022/04/01 08:57:05;;;;;;;7.53;3.60;;;;;;;;;;4975763;28;20033;-63
2022/04/01 08:59:31;;;;;;;6.05;3.88;;;;;;;;;;4976243;28;20077;-64
2022/04/01 09:02:05;;;;;;;5.72;3.45;;;;;;;;;;4975616;28;20069;-64
2022/04/01 09:04:30;;;;;;;7.90;4.15;;;;;;;;;;4976232;28;20432;-63
2022/04/01 09:06:56;;;;;;;7.93;3.97;;;;;;;;;;4975547;28;20457;-64
2022/04/01 09:09:27;;;;;;;6.70;3.72;;;;;;;;;;4975760;28;20054;-64
2022/04/01 09:12:05;;;;;;;;;;;;;;;;;;4976681;28;20030;-63
2022/04/01 09:14:31;;;;;;;10.38;4.28;;;;;;;;;;4976225;28;19917;-66
2022/04/01 09:16:57;;;;;;;7.57;3.88;;;;;;;;;;4975279;28;20026;-64
2022/04/01 09:19:33;;;;;;;7.45;3.67;;;;;;;;;;4976103;28;20105;-64
2022/04/01 09:22:35;;;;;;;6.57;3.65;;;;;;;;;;4975164;28;20034;-66
2022/04/01 09:25:02;;;;;;;7.78;3.90;;;;;;;;;;4881006;29;20037;-63
2022/04/01 09:27:37;;;;;;;11.00;3.70;;;;;;;;;;4961007;28;20039;-62
2022/04/01 09:30:04;;;;;;;5.40;3.38;;;;;;;;;;4974127;28;20097;-64
2022/04/01 09:32:48;;;;;;;7.13;3.88;;;;;;;;;;4958524;28;20035;-63
2022/04/01 09:35:15;;;;;;;4.95;3.33;;;;;;;;;;4974949;28;20496;-63
2022/04/01 09:37:41;;;;;;;6.45;3.83;;;;;;;;;;4975680;28;20030;-64
2022/04/01 09:40:06;;;;;;;6.80;3.88;;;;;;;;;;4974925;28;20031;-64
2022/04/01 09:42:33;;;;;;;8.18;3.58;;;;;;;;;;4975542;28;20034;-65
2022/04/01 09:44:59;;;;;;;6.55;3.80;;;;;;;;;;4974933;28;20035;-65
2022/04/01 09:47:24;;;;;;;6.10;3.60;;;;;;;;;;4974411;28;20432;-65
2022/04/01 09:49:52;;;;;;;6.72;3.55;;;;;;;;;;4974217;28;20481;-65
2022/04/01 09:52:20;;;;;;;5.45;3.40;;;;;;;;;;4974698;28;20058;-66
2022/04/01 09:54:51;;;;;;;7.03;3.22;;;;;;;;;;4975419;28;20031;-65
2022/04/01 09:57:19;;;;;;;5.90;3.50;;;;;;;;;;4974658;28;20050;-66
2022/04/01 09:59:46;;;;;;;5.32;3.47;;;;;;;;;;4957808;28;20093;-65
2022/04/01 10:02:11;;;;;;;6.90;3.65;;;;;;;;;;4974652;28;20034;-66
2022/04/01 10:04:37;;;;;;;6.22;3.70;;;;;;;;;;4975276;28;20110;-66
2022/04/01 10:07:03;;;;;;;6.18;3.75;;;;;;;;;;4974626;28;20429;-65
2022/04/01 10:09:30;;;;;;;5.43;3.50;;;;;;;;;;4957728;28;20037;-65
2022/04/01 10:12:00;;;;;;;5.93;3.55;;;;;;;;;;4974543;28;20026;-66
2022/04/01 10:14:26;;;;;;;6.78;4.32;;;;;;;;;;4975145;28;20093;-66
2022/04/01 10:16:54;;;;;;;6.85;3.97;;;;;;;;;;4974735;28;20039;-66
2022/04/01 10:19:27;;;;;;;7.18;4.35;;;;;;;;;;4974384;28;20179;-67
2022/04/01 10:21:52;;;;;;;7.28;4.10;;;;;;;;;;4975050;28;20469;-66
2022/04/01 10:24:36;;;;;;;7.45;4.30;;;;;;;;;;4973016;28;20142;-65
2022/04/01 10:27:15;;;;;;;8.38;5.00;;;;;;;;;;4974234;28;20031;-65
2022/04/01 10:29:44;;;;;;;6.63;4.10;;;;;;;;;;4974407;28;20439;-66
2022/04/01 10:32:51;;;;;;;7.15;4.47;;;;;;;;;;4974053;28;20022;-67
2022/04/01 10:35:38;;;;;;;7.65;4.45;;;;;;;;;;4962619;28;20137;-66
2022/04/01 10:38:06;;;;;;;7.50;4.47;;;;;;;;;;4973765;28;20380;-65
2022/04/01 10:40:43;;;;;;;8.57;4.65;;;;;;;;;;4974243;28;20030;-65
2022/04/01 10:43:13;;;;;;;8.23;4.50;;;;;;;;;;4973306;28;20022;-65
2022/04/01 10:45:40;;;;;;;7.10;4.10;;;;;;;;;;4973047;28;20138;-66
2022/04/01 10:53:59;;;;;;;7.70;4.60;;;;;;;;;;4973975;28;20062;-65
2022/04/01 10:56:24;;;;;;;8.63;4.53;;;;;;;;;;4973935;28;20037;-68
2022/04/01 10:59:07;;;;;;;8.75;4.28;;;;;;;;;;4974682;28;20030;-66
2022/04/01 11:01:34;;;;;;;8.05;4.70;;;;;;;;;;4974524;28;20030;-66
2022/04/01 11:04:21;;;;;;;7.00;4.40;;;;;;;;;;4974346;28;20186;-67
2022/04/01 11:06:53;;;;;;;8.63;4.63;;;;;;;;;;4972989;28;20042;-65
2022/04/01 11:09:49;;;;;;;9.05;4.85;;;;;;;;;;4973466;28;20029;-65
2022/04/01 11:12:23;;;;;;;9.48;5.20;;;;;;;;;;4955813;28;20027;-65
2022/04/01 11:15:16;;;;;;;8.70;4.85;;;;;;;;;;4974018;28;20061;-65
2022/04/01 11:17:40;;;;;;;7.80;5.07;;;;;;;;;;4973599;28;20043;-64
2022/04/01 11:20:13;;;;;;;7.75;4.75;;;;;;;;;;4971927;28;20507;-65
2022/04/01 11:22:40;;;;;;;7.38;4.57;;;;;;;;;;4974109;28;20046;-64
2022/04/01 11:25:07;;;;;;;11.05;5.70;;;;;;;;;;4971604;28;20034;-64
2022/04/01 11:27:35;;;;;;;7.63;4.25;;;;;;;;;;4973484;28;20033;-63
2022/04/01 11:30:07;;;;;;;6.93;4.38;;;;;;;;;;4973319;28;20535;-64
2022/04/01 11:32:37;;;;;;;9.15;5.15;;;;;;;;;;4974042;28;20081;-63
2022/04/01 11:35:04;;;;;;;9.45;5.18;;;;;;;;;;4973660;28;20035;-63
2022/04/01 11:37:35;;;;;;;7.53;4.78;;;;;;;;;;4956314;28;20058;-63
2022/04/01 11:40:08;;;;;;;8.73;5.00;;;;;;;;;;4973579;28;20057;-63
2022/04/01 11:42:33;;;;;;;8.45;5.28;;;;;;;;;;4973422;28;20031;-65
2022/04/01 11:44:59;;;;;;;8.70;4.88;;;;;;;;;;4973567;28;20030;-65
2022/04/01 11:47:37;;;;;;;8.27;4.97;;;;;;;;;;4972765;28;20466;-65
2022/04/01 11:50:12;;;;;;;8.70;4.80;;;;;;;;;;4973062;28;20485;-67
2022/04/01 11:52:42;;;;;;;8.90;5.15;;;;;;;;;;4955467;28;20047;-68
2022/04/01 11:55:19;;;;;;;8.50;5.10;;;;;;;;;;4972868;28;20041;-68
2022/04/01 11:57:47;;;;;;;7.75;5.18;;;;;;;;;;4973400;28;20125;-70
2022/04/01 12:00:17;;;;;;;7.80;4.82;;;;;;;;;;4972512;28;20039;-71
2022/04/01 12:02:45;;;;;;;10.67;5.43;;;;;;;;;;4973406;28;20150;-72
2022/04/01 12:05:11;;;;;;;10.32;4.85;;;;;;;;;;4955055;28;20260;-73
2022/04/01 12:10:23;;;;;;;8.88;4.72;;;;;;;;;;4972577;28;20046;-71
2022/04/01 12:13:09;;;;;;;9.27;5.00;;;;;;;;;;4976008;28;20046;-71
2022/04/01 12:15:43;;;;;;;7.47;4.97;;;;;;;;;;4977245;28;20037;-71
2022/04/01 12:18:12;;;;;;;7.90;5.38;;;;;;;;;;4976195;28;20110;-70
2022/04/01 12:20:39;;;;;;;7.38;4.50;;;;;;;;;;4976981;28;20121;-71
2022/04/01 12:23:06;;;;;;;9.77;5.38;;;;;;;;;;4975889;28;20176;-70
2022/04/01 12:25:35;;;;;;;8.23;4.70;;;;;;;;;;4976704;28;20040;-70
2022/04/01 12:28:16;;;;;;;7.82;4.57;;;;;;;;;;4976996;28;20046;-69
2022/04/01 12:30:47;;;;;;;10.13;4.80;;;;;;;;;;4976664;28;20027;-69
2022/04/01 12:33:16;;;;;;;;;;;;;;;;;;4959266;28;20041;-68
2022/04/01 12:35:55;;;;;;;10.70;5.00;;;;;;;;;;4976816;28;19917;-69
2022/04/01 12:38:21;;;;;;;7.82;4.40;;;;;;;;;;4976185;28;20038;-69
2022/04/01 12:40:49;;;;;;;11.15;5.25;;;;;;;;;;4976785;28;20109;-69
2022/04/01 12:43:28;;;;;;;7.65;4.57;;;;;;;;;;4975741;28;20130;-69
2022/04/01 12:46:06;;;;;;;9.15;4.80;;;;;;;;;;4976559;28;20172;-68
2022/04/01 12:48:49;;;;;;;10.80;5.00;;;;;;;;;;4974737;28;20042;-68
2022/04/01 12:51:23;;;;;;;7.15;4.60;;;;;;;;;;4975555;28;20054;-69
2022/04/01 12:53:57;;;;;;;8.25;4.95;;;;;;;;;;4975682;28;20104;-68
2022/04/01 12:56:27;;;;;;;9.52;4.78;;;;;;;;;;4958335;28;20031;-68
2022/04/01 12:59:14;;;;;;;7.57;4.85;;;;;;;;;;4959193;28;20034;-68
2022/04/01 13:01:41;;;;;;;6.93;4.13;;;;;;;;;;4976192;28;20101;-67
2022/04/01 13:04:08;;;;;;;9.43;5.03;;;;;;;;;;4976339;28;20035;-66
2022/04/01 13:06:34;;;;;;;10.68;5.15;;;;;;;;;;4976187;28;20046;-68
2022/04/01 13:09:07;;;;;;;7.32;4.68;;;;;;;;;;4976184;28;20027;-68
2022/04/01 13:11:39;;;;;;;8.63;5.50;;;;;;;;;;4975069;28;20031;-67
2022/04/01 13:14:17;;;;;;;9.20;5.03;;;;;;;;;;4976055;28;20031;-67
2022/04/01 13:16:43;;;;;;;8.18;4.72;;;;;;;;;;4976244;28;20109;-68
2022/04/01 13:19:30;;;;;;;9.40;4.85;;;;;;;;;;4976225;28;20057;-67
2022/04/01 13:22:01;;;;;;;9.15;5.13;;;;;;;;;;4975788;28;20073;-68
2022/04/01 13:24:33;;;;;;;10.70;4.93;;;;;;;;;;4973861;28;20081;-68
2022/04/01 13:26:59;;;;;;;10.27;5.30;;;;;;;;;;4975715;28;20030;-67
2022/04/01 13:29:25;;;;;;;10.20;4.75;;;;;;;;;;4975126;28;20077;-66
2022/04/01 13:31:52;;;;;;;7.90;5.07;;;;;;;;;;4975571;28;20034;-66
2022/04/01 13:34:18;;;;;;;8.43;5.80;;;;;;;;;;4974715;28;20042;-66
2022/04/01 13:36:44;;;;;;;10.57;5.78;;;;;;;;;;4958106;28;20035;-66
2022/04/01 13:39:09;;;;;;;9.63;5.57;;;;;;;;;;4975375;28;20187;-65
2022/04/01 13:41:35;;;;;;;9.45;6.07;;;;;;;;;;4974725;28;20027;-66
2022/04/01 13:44:00;;;;;;;10.57;6.30;;;;;;;;;;4975251;28;20121;-66
2022/04/01 13:46:26;;;;;;;9.35;6.20;;;;;;;;;;4973762;28;20113;-65
2022/04/01 13:48:53;;;;;;;11.10;5.93;;;;;;;;;;4975044;28;20358;-66
2022/04/01 13:51:19;;;;;;;9.57;5.95;;;;;;;;;;4974596;28;20432;-65
2022/04/01 13:53:44;;;;;;;9.98;6.25;;;;;;;;;;4975208;28;20034;-66
2022/04/01 13:56:11;;;;;;;10.27;6.40;;;;;;;;;;4975085;28;20074;-66
2022/04/01 13:58:37;;;;;;;12.82;7.00;;;;;;;;;;4974815;28;20062;-65
2022/04/01 14:01:03;;;;;;;10.65;7.22;;;;;;;;;;4975130;28;20034;-65
2022/04/01 14:03:28;;;;;;;11.80;7.32;;;;;;;;;;4974473;28;20027;-65
2022/04/01 14:05:54;;;;;;;10.80;7.40;;;;;;;;;;4974804;28;20030;-65
2022/04/01 14:08:20;;;;;;;12.50;7.68;;;;;;;;;;4974211;28;20409;-65
2022/04/01 14:10:46;;;;;;;12.88;7.57;;;;;;;;;;4974769;28;20484;-66
2022/04/01 14:13:12;;;;;;;11.48;7.88;;;;;;;;;;4974977;28;20089;-65
2022/04/01 14:15:38;;;;;;;11.77;7.78;;;;;;;;;;4975028;28;20034;-65
2022/04/01 14:18:04;;;;;;;10.93;7.50;;;;;;;;;;4974669;28;20411;-66
2022/04/01 14:20:30;;;;;;;13.85;8.85;;;;;;;;;;4973889;28;20031;-65
2022/04/01 14:22:56;;;;;;;13.13;7.65;;;;;;;;;;4974803;28;20046;-65
2022/04/01 14:25:21;;;;;;;14.50;8.30;;;;;;;;;;4974515;28;20030;-65
2022/04/01 14:27:47;;;;;;;14.20;8.45;;;;;;;;;;4973625;28;20035;-64
2022/04/01 14:30:17;;;;;;;13.95;8.68;;;;;;;;;;4973537;28;20457;-65
2022/04/01 14:32:42;;;;;;;14.65;9.15;;;;;;;;;;4973605;28;20114;-65
2022/04/01 14:35:08;;;;;;;16.58;9.45;;;;;;;;;;4973170;28;20477;-64
2022/04/01 14:37:34;;;;;;;16.52;9.77;;;;;;;;;;4973982;28;20403;-64
2022/04/01 14:40:00;;;;;;;15.68;9.43;;;;;;;;;;4974307;28;20504;-66
2022/04/01 14:42:25;;;;;;;21.17;9.68;;;;;;;;;;4972214;28;20106;-65
2022/04/01 14:44:51;;;;;;;15.00;9.57;;;;;;;;;;4974131;28;20026;-65
2022/04/01 14:47:16;;;;;;;17.73;10.40;;;;;;;;;;4973632;28;20041;-65
2022/04/01 14:49:42;;;;;;;15.68;9.85;;;;;;;;;;4973781;28;20030;-66
2022/04/01 14:52:07;;;;;;;18.70;10.45;;;;;;;;;;4974172;28;20056;-65
2022/04/01 14:54:33;;;;;;;15.93;10.25;;;;;;;;;;4973743;28;20038;-64
2022/04/01 14:56:59;;;;;;;17.08;10.30;;;;;;;;;;4974166;28;20070;-65
2022/04/01 14:59:24;;;;;;;18.67;11.63;;;;;;;;;;4973207;28;20110;-65
2022/04/01 15:01:51;;;;;;;17.27;10.77;;;;;;;;;;4974018;28;20440;-65
2022/04/01 15:04:17;;;;;;;18.38;10.57;;;;;;;;;;4972998;28;20105;-64
2022/04/01 15:06:44;;;;;;;18.00;10.82;;;;;;;;;;4973657;28;20499;-65
2022/04/01 15:09:10;;;;;;;17.33;10.85;;;;;;;;;;4973655;28;20065;-64